createdAt,value
2018-08-23T00:00:04.550Z,62.39
2018-08-23T00:01:04.522Z,62.42
2018-08-23T00:02:04.545Z,62.43
2018-08-23T00:03:05.145Z,62.42
2018-08-23T00:04:04.531Z,62.42
2018-08-23T00:05:04.495Z,62.42
2018-08-23T00:06:04.473Z,62.42
2018-08-23T00:07:04.631Z,62.44
2018-08-23T00:08:04.702Z,62.44
2018-08-23T00:09:04.749Z,62.4
2018-08-23T00:10:04.740Z,62.37
2018-08-23T00:11:04.487Z,62.43
2018-08-23T00:12:04.464Z,62.37
2018-08-23T00:13:04.547Z,62.41
2018-08-23T00:14:04.568Z,62.38
2018-08-23T00:15:04.542Z,62.39
2018-08-23T00:16:04.519Z,62.41
2018-08-23T00:17:04.428Z,62.38
2018-08-23T00:18:04.731Z,62.44
2018-08-23T00:19:04.366Z,62.44
2018-08-23T00:20:04.495Z,62.38
2018-08-23T00:21:04.491Z,62.35
2018-08-23T00:22:04.382Z,62.36
2018-08-23T00:23:04.537Z,62.39
2018-08-23T00:24:04.551Z,62.41
2018-08-23T00:25:04.809Z,62.42
2018-08-23T00:26:04.630Z,62.42
2018-08-23T00:27:04.910Z,62.44
2018-08-23T00:28:04.414Z,62.4
2018-08-23T00:29:04.499Z,62.38
2018-08-23T00:30:04.601Z,62.36
2018-08-23T00:31:04.469Z,62.39
2018-08-23T00:32:04.483Z,62.42
2018-08-23T00:33:04.643Z,62.39
2018-08-23T00:34:04.328Z,62.39
2018-08-23T00:35:04.752Z,62.4
2018-08-23T00:36:04.517Z,62.39
2018-08-23T00:37:04.468Z,62.43
2018-08-23T00:38:04.597Z,62.41
2018-08-23T00:39:04.422Z,62.45
2018-08-23T00:40:04.377Z,62.39
2018-08-23T00:41:04.625Z,62.34
2018-08-23T00:42:04.481Z,62.39
2018-08-23T00:43:04.567Z,62.39
2018-08-23T00:44:04.581Z,62.39
2018-08-23T00:45:04.394Z,62.4
2018-08-23T00:46:04.649Z,62.39
2018-08-23T00:47:04.467Z,62.4
2018-08-23T00:48:04.425Z,62.42
2018-08-23T00:49:04.589Z,62.42
2018-08-23T00:50:04.623Z,62.41
2018-08-23T00:51:04.491Z,62.36
2018-08-23T00:52:04.461Z,62.46
2018-08-23T00:53:04.357Z,62.43
2018-08-23T00:54:05.060Z,62.43
2018-08-23T00:55:04.491Z,62.38
2018-08-23T00:56:04.386Z,62.41
2018-08-23T00:57:04.543Z,62.4
2018-08-23T00:58:04.566Z,62.37
2018-08-23T00:59:04.501Z,62.43
2018-08-23T01:00:04.592Z,62.39
2018-08-23T01:01:04.617Z,62.39
2018-08-23T01:02:04.514Z,62.42
2018-08-23T01:03:04.664Z,62.39
2018-08-23T01:04:04.594Z,62.42
2018-08-23T01:05:04.684Z,62.41
2018-08-23T01:06:04.440Z,62.43
2018-08-23T01:07:04.380Z,62.43
2018-08-23T01:08:04.499Z,62.4
2018-08-23T01:09:04.559Z,62.39
2018-08-23T01:10:04.555Z,62.4
2018-08-23T01:11:04.358Z,62.39
2018-08-23T01:12:04.600Z,62.42
2018-08-23T01:13:04.572Z,62.42
2018-08-23T01:14:04.472Z,62.45
2018-08-23T01:15:04.442Z,62.41
2018-08-23T01:16:04.830Z,62.39
2018-08-23T01:17:05.921Z,62.45
2018-08-23T01:18:04.565Z,62.43
2018-08-23T01:19:04.477Z,62.4
2018-08-23T01:20:04.432Z,62.4
2018-08-23T01:21:05.007Z,62.37
2018-08-23T01:22:04.653Z,62.39
2018-08-23T01:23:04.995Z,62.42
2018-08-23T01:24:04.455Z,62.42
2018-08-23T01:25:04.539Z,62.43
2018-08-23T01:26:04.538Z,62.45
2018-08-23T01:27:04.699Z,62.43
2018-08-23T01:28:04.439Z,62.42
2018-08-23T01:29:04.371Z,62.38
2018-08-23T01:30:04.431Z,62.37
2018-08-23T01:31:04.462Z,62.42
2018-08-23T01:32:04.817Z,62.42
2018-08-23T01:33:04.552Z,62.42
2018-08-23T01:34:04.629Z,62.4
2018-08-23T01:35:04.551Z,62.38
2018-08-23T01:36:04.455Z,62.38
2018-08-23T01:37:04.552Z,62.42
2018-08-23T01:38:04.589Z,62.39
2018-08-23T01:39:04.528Z,62.41
2018-08-23T01:40:04.531Z,62.39
2018-08-23T01:41:04.571Z,62.38
2018-08-23T01:42:04.532Z,62.41
2018-08-23T01:43:04.840Z,62.4
2018-08-23T01:44:04.577Z,62.44
2018-08-23T01:45:04.645Z,62.38
2018-08-23T01:46:04.480Z,62.39
2018-08-23T01:47:04.600Z,62.37
2018-08-23T01:48:04.576Z,62.39
2018-08-23T01:49:04.564Z,62.42
2018-08-23T01:50:04.511Z,62.42
2018-08-23T01:51:04.669Z,62.44
2018-08-23T01:52:04.341Z,62.42
2018-08-23T01:53:04.415Z,62.4
2018-08-23T01:54:04.477Z,62.36
2018-08-23T01:55:04.545Z,62.37
2018-08-23T01:56:04.647Z,62.39
2018-08-23T01:57:04.416Z,62.41
2018-08-23T01:58:04.576Z,62.39
2018-08-23T01:59:04.574Z,62.4
2018-08-23T02:00:04.622Z,62.41
2018-08-23T02:01:04.471Z,62.42
2018-08-23T02:02:04.439Z,62.42
2018-08-23T02:03:04.429Z,62.4
2018-08-23T02:04:04.620Z,62.45
2018-08-23T02:05:04.442Z,62.42
2018-08-23T02:06:04.427Z,62.41
2018-08-23T02:07:04.764Z,62.39
2018-08-23T02:08:04.447Z,62.38
2018-08-23T02:09:04.412Z,62.34
2018-08-23T02:10:04.534Z,62.34
2018-08-23T02:11:04.413Z,62.4
2018-08-23T02:12:04.536Z,62.34
2018-08-23T02:13:04.407Z,62.4
2018-08-23T02:14:04.409Z,62.41
2018-08-23T02:15:04.294Z,62.36
2018-08-23T02:16:04.464Z,62.39
2018-08-23T02:17:04.575Z,62.41
2018-08-23T02:18:04.395Z,62.42
2018-08-23T02:19:04.442Z,62.43
2018-08-23T02:20:04.496Z,62.38
2018-08-23T02:21:04.530Z,62.37
2018-08-23T02:22:04.430Z,62.4
2018-08-23T02:23:04.525Z,62.4
2018-08-23T02:24:04.574Z,62.35
2018-08-23T02:25:04.444Z,62.38
2018-08-23T02:26:04.304Z,62.36
2018-08-23T02:27:04.651Z,62.41
2018-08-23T02:28:04.442Z,62.4
2018-08-23T02:29:19.019Z,62.38
2018-08-23T02:30:04.465Z,62.35
2018-08-23T02:31:04.444Z,62.38
2018-08-23T02:32:04.594Z,62.43
2018-08-23T02:33:04.466Z,62.38
2018-08-23T02:34:04.520Z,62.44
2018-08-23T02:35:04.573Z,62.37
2018-08-23T02:36:04.875Z,62.35
2018-08-23T02:37:04.402Z,62.39
2018-08-23T02:38:04.941Z,62.38
2018-08-23T02:39:04.554Z,62.38
2018-08-23T02:40:04.720Z,62.38
2018-08-23T02:41:04.448Z,62.36
2018-08-23T02:42:04.474Z,62.34
2018-08-23T02:43:04.397Z,62.38
2018-08-23T02:44:04.520Z,62.36
2018-08-23T02:45:04.319Z,62.36
2018-08-23T02:46:04.624Z,62.38
2018-08-23T02:47:04.483Z,62.39
2018-08-23T02:48:04.338Z,62.36
2018-08-23T02:49:04.505Z,62.38
2018-08-23T02:50:04.415Z,62.35
2018-08-23T02:51:04.386Z,62.4
2018-08-23T02:52:04.877Z,62.38
2018-08-23T02:53:04.522Z,62.37
2018-08-23T02:54:04.398Z,62.41
2018-08-23T02:55:04.594Z,62.38
2018-08-23T02:56:04.569Z,62.31
2018-08-23T02:57:04.571Z,62.35
2018-08-23T02:58:04.411Z,62.41
2018-08-23T02:59:04.415Z,62.37
2018-08-23T03:00:04.439Z,62.41
2018-08-23T03:01:04.514Z,62.35
2018-08-23T03:02:04.919Z,62.38
2018-08-23T03:03:04.609Z,62.39
2018-08-23T03:04:04.345Z,62.38
2018-08-23T03:05:04.537Z,62.4
2018-08-23T03:06:04.329Z,62.4
2018-08-23T03:07:04.493Z,62.41
2018-08-23T03:08:04.451Z,62.37
2018-08-23T03:09:04.435Z,62.3
2018-08-23T03:10:04.448Z,62.34
2018-08-23T03:11:04.392Z,62.39
2018-08-23T03:12:04.401Z,62.32
2018-08-23T03:13:04.426Z,62.36
2018-08-23T03:14:05.269Z,62.39
2018-08-23T03:15:04.555Z,62.36
2018-08-23T03:16:04.416Z,62.39
2018-08-23T03:17:04.353Z,62.38
2018-08-23T03:18:04.639Z,62.39
2018-08-23T03:19:04.544Z,62.38
2018-08-23T03:20:04.621Z,62.36
2018-08-23T03:21:04.794Z,62.39
2018-08-23T03:22:04.600Z,62.37
2018-08-23T03:23:04.363Z,62.37
2018-08-23T03:24:04.456Z,62.36
2018-08-23T03:25:04.543Z,62.37
2018-08-23T03:26:04.473Z,62.33
2018-08-23T03:27:04.537Z,62.35
2018-08-23T03:28:04.405Z,62.37
2018-08-23T03:29:04.776Z,62.35
2018-08-23T03:30:04.786Z,62.36
2018-08-23T03:31:04.658Z,62.35
2018-08-23T03:32:04.426Z,62.36
2018-08-23T03:33:04.414Z,62.32
2018-08-23T03:34:04.356Z,62.3
2018-08-23T03:35:04.566Z,62.29
2018-08-23T03:36:04.514Z,62.28
2018-08-23T03:37:04.344Z,62.3
2018-08-23T03:38:04.542Z,62.31
2018-08-23T03:39:04.402Z,62.33
2018-08-23T03:40:04.486Z,62.35
2018-08-23T03:41:04.534Z,62.3
2018-08-23T03:42:04.550Z,62.34
2018-08-23T03:43:04.374Z,62.31
2018-08-23T03:44:04.414Z,62.35
2018-08-23T03:45:04.391Z,62.31
2018-08-23T03:46:04.556Z,62.32
2018-08-23T03:47:04.484Z,62.32
2018-08-23T03:48:04.358Z,62.33
2018-08-23T03:49:04.460Z,62.3
2018-08-23T03:50:04.615Z,62.29
2018-08-23T03:51:04.468Z,62.28
2018-08-23T03:52:04.669Z,62.3
2018-08-23T03:53:04.425Z,62.35
2018-08-23T03:54:04.431Z,62.35
2018-08-23T03:55:04.496Z,62.33
2018-08-23T03:56:04.320Z,62.35
2018-08-23T03:57:04.508Z,62.32
2018-08-23T03:58:04.308Z,62.32
2018-08-23T03:59:04.464Z,62.33
2018-08-23T04:00:04.494Z,62.32
2018-08-23T04:01:04.580Z,62.33
2018-08-23T04:02:04.372Z,62.3
2018-08-23T04:03:04.538Z,62.34
2018-08-23T04:04:04.465Z,62.29
2018-08-23T04:05:04.837Z,62.3
2018-08-23T04:06:04.444Z,62.31
2018-08-23T04:07:04.264Z,62.29
2018-08-23T04:08:04.483Z,62.3
2018-08-23T04:09:04.456Z,62.32
2018-08-23T04:10:04.627Z,62.32
2018-08-23T04:11:04.561Z,62.31
2018-08-23T04:12:04.605Z,62.33
2018-08-23T04:13:04.436Z,62.34
2018-08-23T04:14:04.518Z,62.34
2018-08-23T04:15:04.344Z,62.33
2018-08-23T04:16:04.794Z,62.33
2018-08-23T04:17:04.496Z,62.32
2018-08-23T04:18:04.846Z,62.3
2018-08-23T04:19:04.377Z,62.31
2018-08-23T04:20:04.712Z,62.3
2018-08-23T04:21:04.513Z,62.3
2018-08-23T04:22:04.632Z,62.31
2018-08-23T04:23:04.386Z,62.33
2018-08-23T04:24:04.445Z,62.32
2018-08-23T04:25:04.562Z,62.31
2018-08-23T04:26:04.513Z,62.3
2018-08-23T04:27:04.285Z,62.32
2018-08-23T04:28:04.445Z,62.32
2018-08-23T04:29:04.589Z,62.37
2018-08-23T04:30:04.503Z,62.31
2018-08-23T04:31:04.335Z,62.27
2018-08-23T04:32:04.403Z,62.3
2018-08-23T04:33:04.594Z,62.31
2018-08-23T04:34:04.553Z,62.29
2018-08-23T04:35:04.606Z,62.26
2018-08-23T04:36:04.488Z,62.31
2018-08-23T04:37:04.538Z,62.35
2018-08-23T04:38:04.426Z,62.29
2018-08-23T04:39:04.481Z,62.31
2018-08-23T04:40:04.587Z,62.27
2018-08-23T04:41:04.454Z,62.3
2018-08-23T04:42:04.437Z,62.3
2018-08-23T04:43:04.699Z,62.3
2018-08-23T04:44:04.361Z,62.31
2018-08-23T04:45:04.503Z,62.31
2018-08-23T04:46:04.439Z,62.28
2018-08-23T04:47:04.546Z,62.34
2018-08-23T04:48:04.455Z,62.29
2018-08-23T04:49:04.342Z,62.29
2018-08-23T04:50:04.364Z,62.31
2018-08-23T04:51:04.380Z,62.3
2018-08-23T04:52:04.735Z,62.31
2018-08-23T04:53:04.545Z,62.32
2018-08-23T04:54:04.519Z,62.35
2018-08-23T04:55:04.394Z,62.37
2018-08-23T04:56:04.296Z,62.27
2018-08-23T04:57:04.396Z,62.28
2018-08-23T04:58:04.386Z,62.28
2018-08-23T04:59:04.558Z,62.29
2018-08-23T05:00:04.648Z,62.31
2018-08-23T05:01:04.550Z,62.32
2018-08-23T05:02:04.502Z,62.32
2018-08-23T05:03:04.551Z,62.31
2018-08-23T05:04:05.232Z,62.32
2018-08-23T05:05:04.523Z,62.33
2018-08-23T05:06:04.516Z,62.32
2018-08-23T05:07:04.365Z,62.29
2018-08-23T05:08:04.359Z,62.3
2018-08-23T05:09:04.425Z,62.25
2018-08-23T05:10:04.561Z,62.28
2018-08-23T05:11:04.309Z,62.29
2018-08-23T05:12:04.692Z,62.3
2018-08-23T05:13:04.470Z,62.29
2018-08-23T05:14:05.336Z,62.3
2018-08-23T05:15:04.505Z,62.29
2018-08-23T05:16:04.594Z,62.27
2018-08-23T05:17:04.471Z,62.28
2018-08-23T05:18:04.456Z,62.22
2018-08-23T05:19:04.506Z,62.24
2018-08-23T05:20:04.516Z,62.21
2018-08-23T05:21:04.583Z,62.28
2018-08-23T05:22:04.638Z,62.3
2018-08-23T05:23:04.975Z,62.3
2018-08-23T05:24:04.557Z,62.3
2018-08-23T05:25:04.426Z,62.31
2018-08-23T05:26:04.357Z,62.28
2018-08-23T05:27:04.614Z,62.26
2018-08-23T05:28:04.643Z,62.25
2018-08-23T05:29:04.538Z,62.3
2018-08-23T05:30:04.466Z,62.27
2018-08-23T05:31:04.631Z,62.28
2018-08-23T05:32:04.460Z,62.26
2018-08-23T05:33:04.481Z,62.26
2018-08-23T05:34:04.579Z,62.29
2018-08-23T05:35:04.615Z,62.3
2018-08-23T05:36:04.844Z,62.28
2018-08-23T05:37:04.444Z,62.22
2018-08-23T05:38:04.571Z,62.27
2018-08-23T05:39:04.541Z,62.25
2018-08-23T05:40:04.472Z,62.24
2018-08-23T05:41:04.679Z,62.26
2018-08-23T05:42:04.462Z,62.24
2018-08-23T05:43:04.544Z,62.28
2018-08-23T05:44:04.346Z,62.28
2018-08-23T05:45:04.493Z,62.26
2018-08-23T05:46:04.604Z,62.26
2018-08-23T05:47:04.532Z,62.27
2018-08-23T05:48:04.241Z,62.26
2018-08-23T05:49:04.406Z,62.27
2018-08-23T05:50:04.457Z,62.27
2018-08-23T05:51:04.479Z,62.32
2018-08-23T05:52:04.492Z,62.25
2018-08-23T05:53:04.531Z,62.28
2018-08-23T05:54:04.545Z,62.29
2018-08-23T05:55:04.656Z,62.31
2018-08-23T05:56:04.282Z,62.26
2018-08-23T05:57:04.473Z,62.25
2018-08-23T05:58:04.481Z,62.26
2018-08-23T05:59:04.620Z,62.26
2018-08-23T06:00:04.399Z,62.27
2018-08-23T06:01:04.531Z,62.29
2018-08-23T06:02:04.494Z,62.28
2018-08-23T06:03:04.581Z,62.3
2018-08-23T06:04:04.473Z,62.29
2018-08-23T06:05:04.491Z,62.28
2018-08-23T06:06:04.558Z,62.31
2018-08-23T06:07:04.586Z,62.25
2018-08-23T06:08:04.594Z,62.25
2018-08-23T06:09:04.613Z,62.25
2018-08-23T06:10:04.349Z,62.24
2018-08-23T06:11:04.445Z,62.28
2018-08-23T06:12:04.459Z,62.23
2018-08-23T06:13:04.470Z,62.3
2018-08-23T06:14:04.845Z,62.26
2018-08-23T06:15:04.385Z,62.31
2018-08-23T06:16:04.416Z,62.29
2018-08-23T06:17:04.659Z,62.27
2018-08-23T06:18:04.438Z,62.26
2018-08-23T06:19:04.419Z,62.26
2018-08-23T06:20:05.690Z,62.23
2018-08-23T06:21:04.298Z,62.22
2018-08-23T06:22:05.199Z,62.27
2018-08-23T06:23:04.538Z,62.29
2018-08-23T06:24:05.036Z,62.25
2018-08-23T06:25:05.023Z,62.28
2018-08-23T06:26:04.555Z,62.3
2018-08-23T06:27:04.654Z,62.24
2018-08-23T06:28:04.745Z,62.3
2018-08-23T06:29:04.466Z,62.26
2018-08-23T06:30:04.481Z,62.24
2018-08-23T06:31:04.551Z,62.26
2018-08-23T06:32:04.420Z,62.27
2018-08-23T06:33:06.365Z,62.31
2018-08-23T06:34:05.079Z,62.29
2018-08-23T06:35:04.525Z,62.28
2018-08-23T06:36:04.458Z,62.3
2018-08-23T06:37:04.896Z,62.3
2018-08-23T06:38:04.544Z,62.29
2018-08-23T06:39:04.993Z,62.3
2018-08-23T06:40:04.404Z,62.3
2018-08-23T06:41:04.564Z,62.26
2018-08-23T06:42:04.849Z,62.25
2018-08-23T06:43:04.389Z,62.28
2018-08-23T06:44:04.481Z,62.29
2018-08-23T06:45:04.544Z,62.31
2018-08-23T06:46:04.978Z,62.28
2018-08-23T06:47:06.453Z,62.33
2018-08-23T06:48:05.673Z,62.3
2018-08-23T06:49:04.572Z,62.27
2018-08-23T06:50:04.731Z,62.28
2018-08-23T06:51:05.154Z,62.31
2018-08-23T06:52:04.891Z,62.32
2018-08-23T06:53:04.625Z,62.25
2018-08-23T06:54:04.417Z,62.24
2018-08-23T06:55:04.360Z,62.29
2018-08-23T06:56:04.387Z,62.27
2018-08-23T06:57:04.311Z,62.3
2018-08-23T06:58:04.451Z,62.31
2018-08-23T06:59:04.709Z,62.31
2018-08-23T07:00:04.567Z,62.33
2018-08-23T07:01:04.471Z,62.31
2018-08-23T07:02:04.569Z,62.28
2018-08-23T07:03:04.448Z,62.29
2018-08-23T07:04:04.519Z,62.29
2018-08-23T07:05:04.605Z,62.25
2018-08-23T07:06:04.355Z,62.28
2018-08-23T07:07:04.892Z,62.26
2018-08-23T07:08:04.416Z,62.3
2018-08-23T07:09:04.457Z,62.33
2018-08-23T07:10:04.434Z,62.33
2018-08-23T07:11:04.589Z,62.32
2018-08-23T07:12:05.051Z,62.33
2018-08-23T07:13:04.485Z,62.31
2018-08-23T07:14:04.422Z,62.29
2018-08-23T07:15:04.928Z,62.28
2018-08-23T07:16:04.926Z,62.32
2018-08-23T07:17:05.263Z,62.3
2018-08-23T07:18:05.060Z,62.27
2018-08-23T07:19:04.429Z,62.3
2018-08-23T07:20:04.360Z,62.31
2018-08-23T07:21:04.946Z,62.32
2018-08-23T07:22:04.752Z,62.33
2018-08-23T07:23:04.845Z,62.27
2018-08-23T07:24:04.693Z,62.28
2018-08-23T07:25:04.835Z,62.32
2018-08-23T07:26:04.710Z,62.31
2018-08-23T07:27:04.626Z,62.37
2018-08-23T07:28:04.424Z,62.37
2018-08-23T07:29:04.662Z,62.36
2018-08-23T07:30:05.930Z,62.34
2018-08-23T07:31:07.781Z,62.34
2018-08-23T07:32:04.276Z,62.36
2018-08-23T07:33:05.247Z,62.36
2018-08-23T07:34:05.513Z,62.38
2018-08-23T07:35:04.924Z,62.36
2018-08-23T07:36:04.606Z,62.32
2018-08-23T07:37:04.380Z,62.33
2018-08-23T07:38:05.669Z,62.32
2018-08-23T07:39:04.863Z,62.37
2018-08-23T07:40:05.328Z,62.34
2018-08-23T07:41:04.413Z,62.28
2018-08-23T07:42:04.832Z,62.34
2018-08-23T07:43:04.924Z,62.31
2018-08-23T07:44:04.470Z,62.33
2018-08-23T07:45:04.570Z,62.3
2018-08-23T07:46:04.607Z,62.29
2018-08-23T07:47:04.503Z,62.31
2018-08-23T07:48:04.697Z,62.34
2018-08-23T07:49:05.273Z,62.3
2018-08-23T07:50:04.543Z,62.29
2018-08-23T07:51:04.447Z,62.27
2018-08-23T07:52:04.467Z,62.29
2018-08-23T07:53:05.914Z,62.3
2018-08-23T07:54:04.362Z,62.32
2018-08-23T07:55:04.815Z,62.29
2018-08-23T07:56:04.518Z,62.33
2018-08-23T07:57:04.456Z,62.29
2018-08-23T07:58:04.683Z,62.3
2018-08-23T07:59:04.411Z,62.28
2018-08-23T08:00:04.509Z,62.29
2018-08-23T08:01:05.031Z,62.34
2018-08-23T08:02:04.613Z,62.31
2018-08-23T08:03:04.413Z,62.26
2018-08-23T08:04:04.393Z,62.25
2018-08-23T08:05:04.521Z,62.22
2018-08-23T08:06:04.477Z,62.27
2018-08-23T08:07:04.245Z,62.29
2018-08-23T08:08:04.533Z,62.27
2018-08-23T08:09:04.663Z,62.29
2018-08-23T08:10:04.382Z,62.26
2018-08-23T08:11:04.366Z,62.3
2018-08-23T08:12:04.375Z,62.29
2018-08-23T08:13:04.455Z,62.3
2018-08-23T08:14:04.507Z,62.29
2018-08-23T08:15:05.664Z,62.3
2018-08-23T08:16:04.562Z,62.28
2018-08-23T08:17:04.688Z,62.25
2018-08-23T08:18:04.369Z,62.24
2018-08-23T08:19:04.483Z,62.29
2018-08-23T08:20:04.471Z,62.25
2018-08-23T08:21:04.521Z,62.29
2018-08-23T08:22:04.749Z,62.3
2018-08-23T08:23:04.402Z,62.32
2018-08-23T08:24:04.831Z,62.26
2018-08-23T08:25:04.465Z,62.3
2018-08-23T08:26:04.542Z,62.27
2018-08-23T08:27:05.117Z,62.31
2018-08-23T08:28:04.517Z,62.3
2018-08-23T08:29:04.589Z,62.31
2018-08-23T08:30:04.464Z,62.28
2018-08-23T08:31:04.627Z,62.3
2018-08-23T08:32:04.619Z,62.28
2018-08-23T08:33:04.825Z,62.3
2018-08-23T08:34:04.376Z,62.27
2018-08-23T08:35:04.382Z,62.28
2018-08-23T08:36:04.406Z,62.31
2018-08-23T08:37:04.259Z,62.28
2018-08-23T08:38:04.716Z,62.26
2018-08-23T08:39:04.485Z,62.23
2018-08-23T08:40:04.368Z,62.23
2018-08-23T08:41:04.607Z,62.28
2018-08-23T08:42:04.461Z,62.25
2018-08-23T08:43:04.608Z,62.22
2018-08-23T08:44:04.497Z,62.28
2018-08-23T08:45:04.753Z,62.27
2018-08-23T08:46:04.560Z,62.24
2018-08-23T08:47:04.605Z,62.26
2018-08-23T08:48:04.481Z,62.26
2018-08-23T08:49:04.482Z,62.28
2018-08-23T08:50:04.650Z,62.28
2018-08-23T08:51:04.610Z,62.29
2018-08-23T08:52:04.513Z,62.26
2018-08-23T08:53:04.548Z,62.27
2018-08-23T08:54:04.441Z,62.29
2018-08-23T08:55:04.658Z,62.28
2018-08-23T08:56:04.455Z,62.2
2018-08-23T08:57:04.827Z,62.22
2018-08-23T08:58:04.609Z,62.23
2018-08-23T08:59:04.724Z,62.27
2018-08-23T09:00:04.643Z,62.24
2018-08-23T09:01:04.454Z,62.28
2018-08-23T09:02:04.439Z,62.26
2018-08-23T09:03:04.835Z,62.24
2018-08-23T09:04:04.536Z,62.27
2018-08-23T09:05:04.592Z,62.26
2018-08-23T09:06:04.561Z,62.26
2018-08-23T09:07:04.568Z,62.27
2018-08-23T09:08:04.346Z,62.29
2018-08-23T09:09:04.364Z,62.25
2018-08-23T09:10:04.214Z,62.28
2018-08-23T09:11:04.521Z,62.22
2018-08-23T09:12:04.391Z,62.23
2018-08-23T09:13:04.408Z,62.23
2018-08-23T09:14:04.380Z,62.22
2018-08-23T09:15:04.378Z,62.21
2018-08-23T09:16:04.528Z,62.26
2018-08-23T09:17:04.500Z,62.27
2018-08-23T09:18:04.605Z,62.26
2018-08-23T09:19:04.532Z,62.25
2018-08-23T09:20:04.669Z,62.18
2018-08-23T09:21:04.561Z,62.19
2018-08-23T09:22:04.566Z,62.21
2018-08-23T09:23:04.482Z,62.21
2018-08-23T09:24:04.451Z,62.24
2018-08-23T09:25:04.497Z,62.25
2018-08-23T09:26:04.568Z,62.26
2018-08-23T09:27:04.864Z,62.23
2018-08-23T09:28:04.421Z,62.24
2018-08-23T09:29:04.403Z,62.25
2018-08-23T09:30:04.529Z,62.24
2018-08-23T09:31:04.877Z,62.26
2018-08-23T09:32:05.063Z,62.25
2018-08-23T09:33:04.578Z,62.26
2018-08-23T09:34:04.475Z,62.25
2018-08-23T09:35:05.472Z,62.26
2018-08-23T09:36:04.679Z,62.23
2018-08-23T09:37:04.551Z,62.27
2018-08-23T09:38:04.463Z,62.22
2018-08-23T09:39:04.488Z,62.22
2018-08-23T09:40:04.473Z,62.22
2018-08-23T09:41:04.465Z,62.23
2018-08-23T09:42:04.257Z,62.23
2018-08-23T09:43:05.130Z,62.22
2018-08-23T09:44:04.502Z,62.22
2018-08-23T09:45:04.430Z,62.24
2018-08-23T09:46:04.529Z,62.23
2018-08-23T09:47:04.368Z,62.25
2018-08-23T09:48:04.481Z,62.21
2018-08-23T09:49:04.657Z,62.23
2018-08-23T09:50:04.875Z,62.17
2018-08-23T09:51:05.109Z,62.2
2018-08-23T09:52:04.401Z,62.21
2018-08-23T09:53:04.645Z,62.23
2018-08-23T09:54:04.313Z,62.24
2018-08-23T09:55:04.400Z,62.2
2018-08-23T09:56:04.250Z,62.26
2018-08-23T09:57:04.422Z,62.25
2018-08-23T09:58:04.506Z,62.24
2018-08-23T09:59:04.478Z,62.24
2018-08-23T10:00:04.502Z,62.23
2018-08-23T10:01:05.054Z,62.24
2018-08-23T10:02:04.686Z,62.22
2018-08-23T10:03:04.517Z,62.22
2018-08-23T10:04:04.477Z,62.22
2018-08-23T10:05:04.527Z,62.24
2018-08-23T10:06:04.607Z,62.26
2018-08-23T10:07:04.384Z,62.22
2018-08-23T10:08:04.373Z,62.21
2018-08-23T10:09:04.327Z,62.19
2018-08-23T10:10:04.453Z,62.18
2018-08-23T10:11:04.481Z,62.25
2018-08-23T10:12:04.489Z,62.22
2018-08-23T10:13:04.470Z,62.21
2018-08-23T10:14:04.323Z,62.22
2018-08-23T10:15:04.560Z,62.23
2018-08-23T10:16:04.286Z,62.25
2018-08-23T10:17:04.398Z,62.25
2018-08-23T10:18:04.335Z,62.22
2018-08-23T10:19:04.520Z,62.26
2018-08-23T10:20:04.297Z,62.23
2018-08-23T10:21:04.603Z,62.15
2018-08-23T10:22:04.360Z,62.4
2018-08-23T10:23:04.329Z,62.37
2018-08-23T10:24:04.549Z,62.34
2018-08-23T10:25:04.439Z,62.37
2018-08-23T10:26:04.810Z,62.48
2018-08-23T10:27:04.302Z,62.55
2018-08-23T10:28:04.412Z,62.64
2018-08-23T10:29:04.432Z,62.62
2018-08-23T10:30:04.431Z,62.55
2018-08-23T10:31:04.564Z,62.64
2018-08-23T10:32:05.141Z,62.62
2018-08-23T10:33:04.528Z,62.58
2018-08-23T10:34:04.445Z,62.62
2018-08-23T10:35:04.459Z,62.59
2018-08-23T10:36:04.415Z,62.61
2018-08-23T10:37:04.387Z,62.63
2018-08-23T10:38:04.647Z,62.56
2018-08-23T10:39:04.391Z,62.53
2018-08-23T10:40:04.405Z,62.54
2018-08-23T10:41:04.285Z,62.56
2018-08-23T10:42:04.470Z,62.62
2018-08-23T10:43:04.600Z,62.62
2018-08-23T10:44:04.728Z,62.61
2018-08-23T10:45:04.490Z,62.6
2018-08-23T10:46:04.406Z,62.57
2018-08-23T10:47:04.284Z,62.55
2018-08-23T10:48:04.687Z,62.55
2018-08-23T10:49:04.283Z,62.58
2018-08-23T10:50:04.555Z,62.57
2018-08-23T10:51:05.812Z,62.54
2018-08-23T10:52:04.437Z,62.54
2018-08-23T10:53:04.362Z,62.58
2018-08-23T10:54:04.593Z,62.55
2018-08-23T10:55:04.460Z,62.56
2018-08-23T10:56:04.498Z,62.54
2018-08-23T10:57:04.698Z,62.56
2018-08-23T10:58:04.248Z,62.57
2018-08-23T10:59:05.233Z,62.54
2018-08-23T11:00:04.350Z,62.54
2018-08-23T11:01:04.395Z,62.47
2018-08-23T11:02:04.385Z,62.55
2018-08-23T11:03:04.545Z,62.62
2018-08-23T11:04:04.516Z,62.57
2018-08-23T11:05:04.343Z,62.56
2018-08-23T11:06:04.414Z,62.48
2018-08-23T11:07:04.335Z,62.61
2018-08-23T11:08:04.736Z,62.47
2018-08-23T11:09:04.263Z,62.43
2018-08-23T11:10:04.605Z,62.5
2018-08-23T11:11:04.220Z,62.55
2018-08-23T11:12:04.266Z,62.58
2018-08-23T11:13:04.742Z,62.66
2018-08-23T11:14:04.351Z,62.77
2018-08-23T11:15:04.321Z,62.64
2018-08-23T11:16:04.386Z,62.74
2018-08-23T11:17:06.565Z,62.81
2018-08-23T11:18:04.627Z,62.78
2018-08-23T11:19:04.374Z,62.85
2018-08-23T11:20:04.212Z,62.77
2018-08-23T11:21:04.575Z,62.78
2018-08-23T11:22:04.397Z,62.73
2018-08-23T11:23:05.397Z,62.69
2018-08-23T11:24:05.040Z,62.69
2018-08-23T11:25:04.412Z,62.69
2018-08-23T11:26:04.504Z,62.68
2018-08-23T11:27:04.444Z,62.73
2018-08-23T11:28:04.525Z,62.74
2018-08-23T11:29:04.406Z,62.71
2018-08-23T11:30:04.840Z,62.69
2018-08-23T11:31:04.444Z,62.65
2018-08-23T11:32:04.642Z,62.73
2018-08-23T11:33:04.351Z,62.64
2018-08-23T11:34:04.302Z,62.64
2018-08-23T11:35:05.004Z,62.63
2018-08-23T11:36:04.776Z,62.59
2018-08-23T11:37:04.441Z,62.53
2018-08-23T11:38:04.314Z,62.55
2018-08-23T11:39:04.233Z,62.48
2018-08-23T11:40:04.334Z,62.52
2018-08-23T11:41:04.426Z,62.49
2018-08-23T11:42:04.313Z,62.52
2018-08-23T11:43:04.472Z,62.52
2018-08-23T11:44:04.398Z,62.43
2018-08-23T11:45:04.326Z,62.5
2018-08-23T11:46:04.289Z,62.42
2018-08-23T11:47:04.478Z,62.52
2018-08-23T11:48:04.476Z,62.5
2018-08-23T11:49:04.416Z,62.48
2018-08-23T11:50:04.529Z,62.51
2018-08-23T11:51:04.542Z,62.44
2018-08-23T11:52:04.415Z,62.51
2018-08-23T11:53:05.560Z,62.49
2018-08-23T11:54:04.344Z,62.5
2018-08-23T11:55:04.206Z,62.47
2018-08-23T11:56:04.544Z,62.51
2018-08-23T11:57:04.359Z,62.43
2018-08-23T11:58:05.511Z,62.44
2018-08-23T11:59:05.644Z,62.44
2018-08-23T12:00:04.441Z,62.47
2018-08-23T12:01:04.389Z,62.46
2018-08-23T12:02:04.505Z,62.41
2018-08-23T12:03:04.711Z,62.44
2018-08-23T12:04:04.666Z,62.45
2018-08-23T12:05:04.546Z,62.45
2018-08-23T12:06:04.355Z,62.45
2018-08-23T12:07:04.417Z,62.65
2018-08-23T12:08:04.558Z,62.74
2018-08-23T12:09:04.498Z,62.62
2018-08-23T12:10:04.568Z,62.71
2018-08-23T12:11:04.377Z,62.7
2018-08-23T12:12:04.347Z,62.74
2018-08-23T12:13:04.296Z,62.73
2018-08-23T12:14:04.358Z,62.67
2018-08-23T12:15:04.596Z,62.71
2018-08-23T12:16:04.406Z,62.66
2018-08-23T12:17:04.378Z,62.67
2018-08-23T12:18:04.988Z,62.67
2018-08-23T12:19:04.689Z,62.81
2018-08-23T12:20:04.338Z,62.77
2018-08-23T12:21:04.271Z,62.78
2018-08-23T12:22:04.872Z,62.73
2018-08-23T12:23:04.444Z,62.75
2018-08-23T12:24:04.249Z,62.75
2018-08-23T12:25:04.368Z,62.72
2018-08-23T12:26:05.055Z,62.7
2018-08-23T12:27:04.619Z,62.66
2018-08-23T12:28:04.272Z,62.66
2018-08-23T12:29:04.359Z,62.67
2018-08-23T12:30:05.565Z,62.7
2018-08-23T12:31:04.474Z,62.65
2018-08-23T12:32:05.191Z,62.62
2018-08-23T12:33:06.846Z,62.66
2018-08-23T12:34:04.650Z,62.63
2018-08-23T12:35:05.647Z,62.61
2018-08-23T12:36:04.792Z,62.7
2018-08-23T12:37:04.338Z,62.64
2018-08-23T12:38:04.439Z,62.63
2018-08-23T12:39:04.879Z,62.67
2018-08-23T12:40:04.565Z,62.71
2018-08-23T12:41:05.968Z,62.69
2018-08-23T12:42:04.438Z,62.64
2018-08-23T12:43:04.474Z,62.71
2018-08-23T12:44:04.378Z,62.64
2018-08-23T12:45:04.657Z,62.7
2018-08-23T12:46:04.269Z,62.68
2018-08-23T12:47:04.453Z,62.69
2018-08-23T12:48:04.412Z,62.77
2018-08-23T12:49:04.474Z,62.79
2018-08-23T12:50:04.293Z,62.81
2018-08-23T12:51:04.247Z,62.74
2018-08-23T12:52:04.323Z,62.78
2018-08-23T12:53:04.236Z,62.77
2018-08-23T12:54:04.431Z,62.77
2018-08-23T12:55:04.342Z,62.76